Time;durP1;ratioP1;P1;durP2;ratioP2;P2;SDS_P1;SDS_P2;PMS_P1;PMS_P2;Temp;Humidity;BMP_temperature;BMP_pressure;BME280_temperature;BME280_humidity;BME280_pressure;Samples;Min_cycle;Max_cycle;Signal;HPM_P1;HPM_P2
2021/12/04 00:00:21;;;;;;;0.63;0.63;;;17.10;60.80;;;;;;5078416;28;20141;-34
2021/12/04 00:02:48;;;;;;;0.80;0.63;;;17.10;60.90;;;;;;5080508;28;20059;-32
2021/12/04 00:05:14;;;;;;;0.65;0.50;;;17.10;60.90;;;;;;5063851;28;25044;-36
2021/12/04 00:07:40;;;;;;;0.68;0.60;;;17.10;60.90;;;;;;5080127;28;20135;-36
2021/12/04 00:10:06;;;;;;;0.75;0.75;;;17.10;60.90;;;;;;5059591;28;20040;-35
2021/12/04 00:12:34;;;;;;;0.80;0.65;;;17.10;61.00;;;;;;5072067;28;33402;-32
2021/12/04 00:15:00;;;;;;;0.85;0.60;;;17.10;60.90;;;;;;5057291;28;20163;-33
2021/12/04 00:17:26;;;;;;;0.63;0.63;;;17.10;60.90;;;;;;5077320;28;20043;-33
2021/12/04 00:19:52;;;;;;;0.60;0.60;;;17.10;60.90;;;;;;5064146;28;26255;-33
2021/12/04 00:22:18;;;;;;;1.20;0.57;;;17.10;60.90;;;;;;5075169;28;20036;-33
2021/12/04 00:24:44;;;;;;;0.60;0.60;;;17.10;60.90;;;;;;5065177;28;20394;-34
2021/12/04 00:27:09;;;;;;;0.60;0.60;;;17.10;60.90;;;;;;5072348;28;31257;-36
2021/12/04 00:29:35;;;;;;;0.75;0.65;;;17.10;60.90;;;;;;5061776;28;20499;-33
2021/12/04 00:32:09;;;;;;;0.75;0.70;;;17.10;60.90;;;;;;5084039;28;20036;-37
2021/12/04 00:34:38;;;;;;;1.00;0.60;;;17.00;60.80;;;;;;5061749;28;20047;-34
2021/12/04 00:50:34;;;;;;;0.73;0.60;;;17.00;60.90;;;;;;5062533;28;20044;-35
2021/12/04 00:53:00;;;;;;;0.73;0.60;;;17.00;60.90;;;;;;5084598;28;20039;-32
2021/12/04 00:55:26;;;;;;;0.90;0.55;;;16.90;60.90;;;;;;5062305;28;34058;-33
2021/12/04 00:57:52;;;;;;;0.65;0.65;;;17.00;60.90;;;;;;5075275;28;20032;-39
2021/12/04 01:00:18;;;;;;;0.50;0.50;;;17.00;60.90;;;;;;5084661;28;20040;-34
2021/12/04 01:02:43;;;;;;;0.47;0.47;;;17.00;60.90;;;;;;5062998;28;25310;-36
2021/12/04 01:05:10;;;;;;;0.75;0.60;;;17.00;60.90;;;;;;5083301;28;20071;-32
2021/12/04 01:07:35;;;;;;;0.70;0.60;;;17.00;60.90;;;;;;5061307;28;20051;-35
2021/12/04 01:10:04;;;;;;;0.60;0.60;;;16.90;60.90;;;;;;5077972;28;35774;-32
2021/12/04 01:12:29;;;;;;;0.43;0.43;;;17.00;60.90;;;;;;5062369;28;20926;-35
2021/12/04 01:14:55;;;;;;;0.60;0.60;;;17.00;60.90;;;;;;5080364;28;20097;-34
2021/12/04 01:17:21;;;;;;;0.40;0.40;;;16.90;60.90;;;;;;5064311;28;20388;-33
2021/12/04 01:19:46;;;;;;;0.47;0.47;;;16.90;60.90;;;;;;5080792;28;20028;-32
2021/12/04 01:22:12;;;;;;;0.40;0.40;;;16.90;60.90;;;;;;5058241;28;36903;-32
2021/12/04 01:24:37;;;;;;;0.50;0.50;;;16.90;60.90;;;;;;5081782;28;20716;-32
2021/12/04 01:27:03;;;;;;;0.40;0.40;;;16.90;60.90;;;;;;5063380;28;23867;-32
2021/12/04 01:29:29;;;;;;;0.50;0.45;;;16.90;60.90;;;;;;5074352;28;20063;-34
2021/12/04 01:31:54;;;;;;;0.60;0.60;;;16.90;60.90;;;;;;5080538;28;20122;-33
2021/12/04 01:34:20;;;;;;;0.50;0.50;;;16.90;60.90;;;;;;5061426;28;20557;-33
2021/12/04 01:36:46;;;;;;;0.40;0.40;;;16.90;60.90;;;;;;5077870;28;31290;-32
2021/12/04 01:39:11;;;;;;;0.45;0.45;;;16.90;60.90;;;;;;5058892;28;20036;-35
2021/12/04 01:41:37;;;;;;;0.40;0.40;;;16.90;60.90;;;;;;5083770;28;20097;-34
2021/12/04 01:44:04;;;;;;;0.45;0.45;;;16.80;60.90;;;;;;5043809;28;26055;-34
2021/12/04 01:46:30;;;;;;;0.43;0.43;;;16.90;60.90;;;;;;5096460;28;20048;-31
2021/12/04 01:48:56;;;;;;;0.47;0.47;;;16.90;60.90;;;;;;5066821;28;20662;-34
2021/12/04 01:51:22;;;;;;;0.45;0.45;;;16.90;60.90;;;;;;5075949;28;29132;-32
2021/12/04 01:53:48;;;;;;;0.40;0.40;;;16.90;60.90;;;;;;5062267;28;20036;-32
2021/12/04 01:56:15;;;;;;;0.45;0.45;;;16.80;60.80;;;;;;5080647;28;20062;-34
2021/12/04 01:58:44;;;;;;;0.50;0.40;;;16.80;60.80;;;;;;5058328;28;20053;-37
2021/12/04 02:01:10;;;;;;;0.60;0.47;;;16.80;60.80;;;;;;5077447;28;20056;-32
2021/12/04 02:03:36;;;;;;;0.50;0.50;;;16.80;60.80;;;;;;5061840;28;20052;-31
2021/12/04 02:06:02;;;;;;;0.52;0.52;;;16.80;60.80;;;;;;5077444;28;33635;-31
2021/12/04 02:08:28;;;;;;;0.47;0.47;;;16.80;60.80;;;;;;5078628;28;20499;-32
2021/12/04 02:10:57;;;;;;;0.68;0.52;;;16.80;61.50;;;;;;5059566;28;20040;-37
2021/12/04 02:13:22;;;;;;;0.47;0.47;;;16.80;61.50;;;;;;5076597;28;20903;-31
2021/12/04 02:15:48;;;;;;;0.40;0.40;;;16.80;60.80;;;;;;5062438;28;25807;-33
2021/12/04 02:18:16;;;;;;;0.43;0.40;;;16.80;60.80;;;;;;5061762;28;31583;-32
2021/12/04 02:20:42;;;;;;;0.47;0.47;;;16.80;60.80;;;;;;5077910;28;20055;-32
2021/12/04 02:23:09;;;;;;;0.40;0.40;;;16.70;60.70;;;;;;5077694;28;20032;-32
2021/12/04 02:25:35;;;;;;;0.50;0.50;;;16.80;60.80;;;;;;5059766;28;20586;-35
2021/12/04 02:28:03;;;;;;;0.40;0.40;;;16.80;60.80;;;;;;5077111;28;20068;-37
2021/12/04 02:30:32;;;;;;;0.70;0.57;;;16.70;60.70;;;;;;5061730;28;25991;-38
2021/12/04 02:32:59;;;;;;;0.40;0.40;;;16.70;60.70;;;;;;5074888;28;33867;-33
2021/12/04 02:35:25;;;;;;;0.50;0.50;;;16.70;60.70;;;;;;5061478;28;20498;-33
2021/12/04 02:37:52;;;;;;;0.40;0.40;;;16.70;60.70;;;;;;5079230;28;20102;-35
2021/12/04 02:40:21;;;;;;;0.40;0.40;;;16.70;60.70;;;;;;5062421;28;26056;-33
2021/12/04 02:42:47;;;;;;;0.40;0.40;;;16.70;60.70;;;;;;5080480;28;20463;-32
2021/12/04 02:45:14;;;;;;;0.45;0.45;;;16.70;60.70;;;;;;5077567;28;20541;-32
2021/12/04 02:47:40;;;;;;;0.43;0.43;;;16.60;60.60;;;;;;5064583;28;33744;-34
2021/12/04 02:50:08;;;;;;;1.33;0.57;;;16.70;60.60;;;;;;5079311;28;20532;-32
2021/12/04 02:52:35;;;;;;;0.40;0.40;;;16.70;60.70;;;;;;5062953;28;25650;-34
2021/12/04 02:55:02;;;;;;;0.32;0.32;;;16.70;60.70;;;;;;5077829;28;20111;-35
2021/12/04 02:57:28;;;;;;;0.30;0.30;;;16.70;60.80;;;;;;5062839;28;20118;-33
2021/12/04 02:59:55;;;;;;;0.30;0.30;;;16.70;60.70;;;;;;5072190;28;20442;-31
2021/12/04 03:02:22;;;;;;;0.40;0.40;;;16.60;60.60;;;;;;5054006;28;31346;-34
2021/12/04 03:04:52;;;;;;;0.30;0.30;;;16.60;60.60;;;;;;5078453;28;20132;-32
2021/12/04 03:07:19;;;;;;;0.63;0.30;;;16.60;60.60;;;;;;5060550;28;20407;-31
2021/12/04 03:09:44;;;;;;;0.75;0.40;;;16.60;60.70;;;;;;5081411;28;20036;-37
2021/12/04 03:12:11;;;;;;;0.32;0.32;;;16.60;60.70;;;;;;5060572;28;20406;-32
2021/12/04 03:14:37;;;;;;;0.45;0.45;;;16.60;60.60;;;;;;5073231;28;33700;-34
2021/12/04 03:17:04;;;;;;;0.50;0.50;;;16.60;60.60;;;;;;5059510;28;20402;-32
2021/12/04 03:19:30;;;;;;;0.40;0.40;;;16.60;60.60;;;;;;5078457;28;20055;-33
2021/12/04 03:21:56;;;;;;;0.40;0.40;;;16.60;60.60;;;;;;5067824;28;20032;-35
2021/12/04 03:24:22;;;;;;;0.25;0.25;;;16.60;60.50;;;;;;5071343;28;20052;-34
2021/12/04 03:26:50;;;;;;;0.30;0.30;;;16.50;60.60;;;;;;5079693;28;20714;-36
2021/12/04 03:29:19;;;;;;;0.32;0.32;;;16.50;60.60;;;;;;5055028;28;34221;-33
2021/12/04 03:42:39;;;;;;;0.32;0.32;;;16.50;60.60;;;;;;5077274;28;36563;-32
2021/12/04 03:45:08;;;;;;;0.30;0.30;;;16.50;60.60;;;;;;5055795;28;24274;-33
2021/12/04 03:47:35;;;;;;;0.30;0.28;;;16.50;60.60;;;;;;5079063;28;20042;-33
2021/12/04 03:50:00;;;;;;;0.30;0.30;;;16.50;60.60;;;;;;5063885;28;20067;-33
2021/12/04 03:52:26;;;;;;;0.30;0.30;;;16.50;60.60;;;;;;5076404;28;20471;-31
2021/12/04 03:54:51;;;;;;;0.40;0.40;;;16.50;60.60;;;;;;5059809;28;20048;-35
2021/12/04 03:57:17;;;;;;;0.40;0.40;;;16.50;60.60;;;;;;5077769;28;36220;-36
2021/12/04 03:59:47;;;;;;;0.30;0.30;;;16.40;60.60;;;;;;5061001;28;20622;-34
2021/12/04 04:02:16;;;;;;;0.40;0.40;;;16.40;60.50;;;;;;5082898;28;20216;-32
2021/12/04 04:04:42;;;;;;;0.35;0.35;;;16.40;60.50;;;;;;5064784;28;20059;-34
2021/12/04 04:07:08;;;;;;;0.30;0.30;;;16.40;60.60;;;;;;5083201;28;20048;-31
2021/12/04 04:09:35;;;;;;;0.57;0.40;;;16.40;60.60;;;;;;5064391;28;20048;-33
2021/12/04 04:12:01;;;;;;;0.30;0.30;;;16.40;60.60;;;;;;5080997;28;31387;-32
2021/12/04 04:14:27;;;;;;;0.30;0.30;;;16.40;60.70;;;;;;5060764;28;26153;-34
2021/12/04 04:16:54;;;;;;;0.35;0.30;;;16.40;60.60;;;;;;5083357;28;20056;-34
2021/12/04 04:19:21;;;;;;;0.32;0.32;;;16.40;60.60;;;;;;5081620;28;20067;-33
2021/12/04 04:21:47;;;;;;;0.32;0.32;;;16.40;60.60;;;;;;5065870;28;26247;-34
2021/12/04 04:24:16;;;;;;;0.40;0.40;;;16.40;60.60;;;;;;5081796;28;20067;-33
2021/12/04 04:26:43;;;;;;;0.40;0.40;;;16.30;60.50;;;;;;5066111;28;36059;-38
2021/12/04 04:29:10;;;;;;;0.40;0.40;;;16.40;60.60;;;;;;5079262;28;20542;-32
2021/12/04 04:31:43;;;;;;;0.40;0.40;;;16.30;60.50;;;;;;5055840;28;20949;-32
2021/12/04 04:34:09;;;;;;;0.30;0.30;;;16.30;60.50;;;;;;5082131;28;20127;-32
2021/12/04 05:11:43;;;;;;;0.30;0.30;;;16.20;60.50;;;;;;5080713;28;20082;-33
2021/12/04 05:14:16;;;;;;;0.30;0.30;;;16.20;60.50;;;;;;5063689;28;20046;-32
2021/12/04 05:19:28;;;;;;;0.40;0.40;;;16.20;60.50;;;;;;5059664;28;20078;-31
2021/12/04 05:21:54;;;;;;;0.30;0.30;;;16.20;60.50;;;;;;5079775;28;27132;-32
2021/12/04 05:24:21;;;;;;;0.40;0.40;;;16.20;60.50;;;;;;5063277;28;22602;-32
2021/12/04 05:26:46;;;;;;;0.30;0.30;;;16.10;60.40;;;;;;5080239;28;20055;-34
2021/12/04 05:29:12;;;;;;;0.30;0.30;;;16.20;60.50;;;;;;5064781;28;22892;-33
2021/12/04 05:31:37;;;;;;;0.30;0.30;;;16.10;60.50;;;;;;5075567;28;20134;-33
2021/12/04 05:34:03;;;;;;;0.30;0.30;;;16.10;60.50;;;;;;5065881;28;25254;-32
2021/12/04 05:36:29;;;;;;;0.32;0.32;;;16.10;60.40;;;;;;5075678;28;24384;-32
2021/12/04 05:38:54;;;;;;;0.30;0.30;;;16.10;60.50;;;;;;5064953;28;20032;-32
2021/12/04 05:41:20;;;;;;;0.63;0.63;;;16.10;60.50;;;;;;5083244;28;20540;-31
2021/12/04 05:43:47;;;;;;;0.55;0.30;;;16.10;60.40;;;;;;5065816;28;23210;-33
2021/12/04 05:48:45;;;;;;;0.40;0.40;;;16.10;60.40;;;;;;5064492;28;22461;-35
2021/12/04 05:54:01;;;;;;;0.30;0.30;;;16.10;60.50;;;;;;5079915;28;20454;-31
2021/12/04 05:56:29;;;;;;;0.40;0.40;;;16.10;60.50;;;;;;5079465;28;20798;-33
2021/12/04 05:58:55;;;;;;;0.40;0.40;;;16.00;60.40;;;;;;5080573;28;20047;-33
2021/12/04 06:01:22;;;;;;;0.40;0.40;;;16.00;60.40;;;;;;5057938;28;24180;-34
2021/12/04 06:03:48;;;;;;;0.40;0.40;;;16.00;60.50;;;;;;5076071;28;34353;-36
2021/12/04 06:06:15;;;;;;;0.38;0.38;;;16.00;60.40;;;;;;5065462;28;25356;-33
2021/12/04 06:08:41;;;;;;;0.50;0.50;;;16.00;60.40;;;;;;5040796;28;20036;-34
2021/12/04 06:11:07;;;;;;;1.08;0.38;;;15.90;60.40;;;;;;5061742;28;20043;-32
2021/12/04 06:13:33;;;;;;;0.40;0.40;;;16.00;60.40;;;;;;5080567;28;20040;-32
2021/12/04 06:15:58;;;;;;;0.40;0.40;;;16.00;60.40;;;;;;5057216;28;24879;-32
2021/12/04 06:18:24;;;;;;;0.32;0.32;;;16.00;60.40;;;;;;5077566;28;31525;-32
2021/12/04 06:23:35;;;;;;;0.30;0.30;;;16.00;60.30;;;;;;5079181;28;20495;-34
2021/12/04 06:26:03;;;;;;;0.30;0.30;;;16.00;60.40;;;;;;5061985;28;24879;-33
2021/12/04 06:28:28;;;;;;;0.35;0.35;;;16.00;60.40;;;;;;5080770;28;20080;-33
2021/12/04 06:30:55;;;;;;;0.50;0.50;;;16.00;60.40;;;;;;5061054;28;20147;-36
2021/12/04 06:33:21;;;;;;;0.40;0.40;;;16.00;60.30;;;;;;5074899;28;33967;-31
2021/12/04 06:35:47;;;;;;;0.32;0.32;;;16.00;60.40;;;;;;5055433;28;20039;-35
2021/12/04 06:38:16;;;;;;;0.30;0.30;;;16.00;60.50;;;;;;5073349;28;20542;-34
2021/12/04 06:40:42;;;;;;;0.50;0.50;;;16.00;60.40;;;;;;5079966;28;20040;-33
2021/12/04 06:43:08;;;;;;;0.30;0.30;;;16.00;60.30;;;;;;5065409;28;24492;-33
2021/12/04 06:45:37;;;;;;;0.30;0.20;;;16.00;60.40;;;;;;5077403;28;36967;-34
2021/12/04 06:48:10;;;;;;;0.35;0.35;;;16.00;60.30;;;;;;5060035;28;24533;-39
2021/12/04 06:50:43;;;;;;;0.50;0.50;;;16.00;60.30;;;;;;5081583;28;20040;-33
2021/12/04 06:55:42;;;;;;;0.40;0.40;;;16.00;60.20;;;;;;5078086;28;20048;-32
2021/12/04 06:58:08;;;;;;;0.38;0.38;;;16.00;60.20;;;;;;5062825;28;23176;-35
2021/12/04 07:00:34;;;;;;;0.30;0.30;;;16.00;60.20;;;;;;5075178;28;36901;-34
2021/12/04 07:03:00;;;;;;;0.30;0.30;;;16.10;60.20;;;;;;5058198;28;20538;-33
2021/12/04 07:05:25;;;;;;;0.35;0.35;;;16.10;60.20;;;;;;5077699;28;20704;-32
2021/12/04 07:07:51;;;;;;;0.43;0.43;;;16.10;60.20;;;;;;5059879;28;20054;-34
2021/12/04 07:10:17;;;;;;;0.30;0.30;;;16.10;60.20;;;;;;5076546;28;20668;-32
2021/12/04 07:12:42;;;;;;;0.50;0.40;;;16.10;60.20;;;;;;5062894;28;23688;-33
2021/12/04 07:15:10;;;;;;;0.50;0.50;;;16.10;60.20;;;;;;5076428;28;33478;-34
2021/12/04 07:17:36;;;;;;;0.40;0.40;;;16.10;60.10;;;;;;5073896;28;20404;-33
2021/12/04 07:20:07;;;;;;;0.30;0.30;;;16.10;60.10;;;;;;5063427;28;20123;-32
2021/12/04 07:22:33;;;;;;;0.40;0.40;;;16.20;60.10;;;;;;5074268;28;20044;-35
2021/12/04 07:25:00;;;;;;;0.38;0.38;;;16.20;60.10;;;;;;5059459;28;24254;-36
2021/12/04 07:27:28;;;;;;;0.40;0.40;;;16.20;60.00;;;;;;5058981;28;36904;-37
2021/12/04 07:29:54;;;;;;;0.30;0.30;;;16.20;60.00;;;;;;5054774;28;34663;-37
2021/12/04 07:32:20;;;;;;;0.30;0.30;;;16.30;59.90;;;;;;5077875;28;21898;-34
2021/12/04 07:34:45;;;;;;;0.47;0.40;;;16.30;59.90;;;;;;5067199;28;23841;-34
2021/12/04 07:37:11;;;;;;;0.30;0.30;;;16.30;59.90;;;;;;5079125;28;36823;-33
2021/12/04 07:39:36;;;;;;;0.30;0.30;;;16.40;59.90;;;;;;5048391;28;22724;-33
2021/12/04 07:42:02;;;;;;;0.40;0.40;;;16.40;59.90;;;;;;5082967;28;20082;-34
2021/12/04 07:44:28;;;;;;;0.30;0.30;;;16.40;59.80;;;;;;5063367;28;39090;-33
2021/12/04 07:46:53;;;;;;;0.32;0.30;;;16.40;59.70;;;;;;5082857;28;20139;-33
2021/12/04 07:49:19;;;;;;;0.38;0.38;;;16.50;59.70;;;;;;5062682;28;20474;-34
2021/12/04 07:51:45;;;;;;;0.32;0.32;;;16.50;59.70;;;;;;5084008;28;20028;-33
2021/12/04 07:54:12;;;;;;;0.40;0.40;;;16.50;59.70;;;;;;5079386;28;20105;-34
2021/12/04 07:56:38;;;;;;;2.47;0.50;;;16.50;59.70;;;;;;5062635;28;20036;-34
2021/12/04 07:59:03;;;;;;;1.70;0.40;;;16.50;59.60;;;;;;5080743;28;31155;-36
2021/12/04 08:01:29;;;;;;;2.75;0.40;;;16.50;59.60;;;;;;5064310;28;20052;-33
2021/12/04 08:03:54;;;;;;;0.43;0.43;;;16.50;59.60;;;;;;5081465;28;20491;-32
2021/12/04 08:06:20;;;;;;;1.02;0.40;;;16.60;59.60;;;;;;5064562;28;25081;-32
2021/12/04 08:08:46;;;;;;;0.63;0.40;;;16.60;59.70;;;;;;5080629;28;20556;-32
2021/12/04 08:11:11;;;;;;;2.20;0.45;;;16.60;59.60;;;;;;5068819;28;20468;-33
2021/12/04 08:13:37;;;;;;;0.43;0.32;;;16.60;59.60;;;;;;5078710;28;34369;-32
2021/12/04 08:16:03;;;;;;;0.40;0.40;;;16.60;59.60;;;;;;5065401;28;25744;-32
2021/12/04 08:18:28;;;;;;;0.30;0.30;;;16.60;59.60;;;;;;5081628;28;20054;-34
2021/12/04 08:20:54;;;;;;;0.50;0.40;;;16.60;59.70;;;;;;5063779;28;23654;-33
2021/12/04 08:23:20;;;;;;;0.70;0.40;;;16.70;59.60;;;;;;5083226;28;20040;-32
2021/12/04 08:25:47;;;;;;;1.45;0.75;;;16.70;59.50;;;;;;5069759;28;21262;-34
2021/12/04 08:28:14;;;;;;;0.40;0.40;;;16.70;59.50;;;;;;5077094;28;20776;-37
2021/12/04 08:30:40;;;;;;;1.73;0.35;;;16.80;59.50;;;;;;5080698;28;20048;-37
2021/12/04 08:33:08;;;;;;;0.60;0.50;;;16.70;59.50;;;;;;5061820;28;22989;-35
2021/12/04 08:35:39;;;;;;;0.52;0.43;;;16.70;59.40;;;;;;5097824;28;20631;-36
2021/12/04 08:38:07;;;;;;;1.25;0.38;;;16.80;59.60;;;;;;5063406;28;20043;-37
2021/12/04 08:40:33;;;;;;;0.50;0.50;;;16.80;59.50;;;;;;5074803;28;20072;-34
2021/12/04 08:42:59;;;;;;;0.63;0.50;;;16.80;59.50;;;;;;5062597;28;35549;-34
2021/12/04 08:45:26;;;;;;;0.50;0.43;;;16.80;59.40;;;;;;5078964;28;20167;-33
2021/12/04 08:47:53;;;;;;;0.82;0.60;;;16.80;59.40;;;;;;5058128;28;20123;-34
2021/12/04 08:50:25;;;;;;;1.05;0.70;;;16.90;59.50;;;;;;5080676;28;20039;-37
2021/12/04 08:52:52;;;;;;;0.73;0.65;;;16.90;59.50;;;;;;5060005;28;23028;-35
2021/12/04 08:55:18;;;;;;;0.40;0.40;;;16.80;59.40;;;;;;5092755;27;20520;-38
2021/12/04 08:57:44;;;;;;;0.70;0.50;;;16.90;59.50;;;;;;5061980;28;36823;-39
2021/12/04 09:00:15;;;;;;;0.50;0.50;;;16.90;59.50;;;;;;5075351;28;20097;-35
2021/12/04 09:02:42;;;;;;;0.55;0.52;;;16.90;59.50;;;;;;5061525;28;23821;-37
2021/12/04 09:05:09;;;;;;;0.50;0.50;;;16.90;59.40;;;;;;5081029;28;20032;-34
2021/12/04 09:07:35;;;;;;;0.50;0.50;;;17.00;59.40;;;;;;5076506;28;20128;-35
2021/12/04 09:10:01;;;;;;;1.17;0.77;;;17.00;59.30;;;;;;5053629;28;35754;-33
2021/12/04 09:12:27;;;;;;;0.45;0.45;;;17.00;59.30;;;;;;5081791;28;20044;-32
2021/12/04 09:14:55;;;;;;;0.57;0.57;;;17.00;59.40;;;;;;5061730;28;20376;-32
2021/12/04 09:17:21;;;;;;;1.60;0.63;;;17.00;59.30;;;;;;5081419;28;20407;-32
2021/12/04 09:19:49;;;;;;;0.60;0.50;;;17.00;59.40;;;;;;5060344;28;23182;-33
2021/12/04 09:22:16;;;;;;;0.82;0.65;;;17.00;59.40;;;;;;5073882;28;20951;-33
2021/12/04 09:24:47;;;;;;;1.70;0.63;;;17.00;59.30;;;;;;5058905;28;37224;-33
2021/12/04 09:29:51;;;;;;;0.50;0.50;;;17.00;59.30;;;;;;5061822;28;20130;-34
2021/12/04 09:35:08;;;;;;;0.68;0.60;;;17.00;59.30;;;;;;5062512;28;22756;-33
2021/12/04 10:13:32;;;;;;;0.80;0.70;;;17.10;59.30;;;;;;5074441;28;20109;-33
2021/12/04 10:19:03;;;;;;;0.73;0.68;;;17.20;59.40;;;;;;5076743;28;20048;-36
2021/12/04 10:24:10;;;;;;;1.05;1.00;;;17.20;59.30;;;;;;5082969;28;20044;-35
2021/12/04 10:34:55;;;;;;;2.15;1.05;;;17.20;59.30;;;;;;5076053;28;29199;-38
2021/12/04 10:37:26;;;;;;;2.33;0.95;;;17.20;59.40;;;;;;5059585;28;20129;-33
2021/12/04 10:39:55;;;;;;;3.78;1.20;;;17.20;59.40;;;;;;5075186;28;20063;-33
2021/12/04 10:42:29;;;;;;;1.35;1.20;;;17.20;59.40;;;;;;5056348;28;20032;-39
2021/12/04 10:44:56;;;;;;;2.13;1.67;;;17.20;59.40;;;;;;5078123;28;20052;-37
2021/12/04 10:47:25;;;;;;;3.85;1.83;;;17.20;59.30;;;;;;5078329;28;20748;-38
2021/12/04 10:50:20;;;;;;;4.15;1.70;;;17.20;59.20;;;;;;5067693;28;36313;-39
2021/12/04 10:52:51;;;;;;;4.35;1.65;;;17.20;59.30;;;;;;5057365;28;20054;-39
2021/12/04 11:03:40;;;;;;;1.40;1.20;;;17.20;59.20;;;;;;5053522;28;36277;-37
2021/12/04 11:06:35;;;;;;;1.65;1.27;;;17.30;59.30;;;;;;5075915;28;20044;-37
2021/12/04 11:21:09;;;;;;;3.88;1.73;;;17.30;59.20;;;;;;5057466;28;20052;-36
2021/12/04 11:37:52;;;;;;;6.47;2.20;;;17.20;59.50;;;;;;5075549;28;20050;-41
2021/12/04 11:42:54;;;;;;;4.05;1.70;;;17.30;59.50;;;;;;5077893;28;20048;-39
2021/12/04 11:45:28;;;;;;;3.58;1.77;;;17.30;59.50;;;;;;5057605;28;26004;-35
2021/12/04 11:48:03;;;;;;;4.25;2.30;;;17.30;59.40;;;;;;5072769;28;20037;-37
2021/12/04 11:50:35;;;;;;;2.63;1.58;;;17.30;59.40;;;;;;5061571;28;20032;-41
2021/12/04 11:53:05;;;;;;;4.15;2.17;;;17.30;59.40;;;;;;5076568;28;20044;-38
2021/12/04 11:55:35;;;;;;;2.70;1.67;;;17.30;59.40;;;;;;5073719;28;20028;-39
2021/12/04 11:58:01;;;;;;;3.78;1.58;;;17.30;59.40;;;;;;5058153;28;20072;-38
2021/12/04 12:00:31;;;;;;;2.65;1.50;;;17.30;59.40;;;;;;5076151;28;40934;-38
2021/12/04 12:03:08;;;;;;;2.20;1.70;;;17.30;59.40;;;;;;5059188;28;25012;-37
2021/12/04 12:05:50;;;;;;;2.50;1.77;;;17.30;59.30;;;;;;5079726;28;20032;-35
2021/12/04 12:08:28;;;;;;;2.90;1.65;;;17.30;59.30;;;;;;5063037;28;24818;-38
2021/12/04 12:10:59;;;;;;;3.30;1.80;;;17.30;59.50;;;;;;5074105;28;20036;-36
2021/12/04 12:13:29;;;;;;;5.20;1.67;;;17.30;59.70;;;;;;5058960;28;36594;-36
2021/12/04 12:16:16;;;;;;;2.45;1.98;;;17.30;59.80;;;;;;5075412;28;20717;-36
2021/12/04 12:18:44;;;;;;;1.95;1.60;;;17.30;59.70;;;;;;5059089;28;20047;-37
2021/12/04 12:21:12;;;;;;;3.95;2.28;;;17.30;59.60;;;;;;5081900;28;20031;-41
2021/12/04 12:26:57;;;;;;;3.88;2.17;;;17.30;59.50;;;;;;5079882;28;20094;-37
2021/12/04 12:32:46;;;;;;;3.17;2.28;;;17.40;59.50;;;;;;5067644;28;20144;-42
2021/12/04 12:36:03;;;;;;;5.63;2.47;;;17.30;59.50;;;;;;5079454;28;20117;-39
2021/12/04 12:38:35;;;;;;;3.30;2.60;;;17.30;59.50;;;;;;5043372;28;23604;-37
2021/12/04 12:41:22;;;;;;;5.40;3.45;;;17.30;59.60;;;;;;5077750;28;41322;-40
2021/12/04 12:43:51;;;;;;;6.00;3.63;;;17.20;59.50;;;;;;5062749;28;24313;-39
2021/12/04 12:46:17;;;;;;;8.38;3.83;;;17.20;59.50;;;;;;5082060;28;20044;-35
2021/12/04 12:48:51;;;;;;;7.80;3.95;;;17.20;59.50;;;;;;5063713;28;24786;-37
2021/12/04 12:51:24;;;;;;;5.93;3.80;;;17.20;59.40;;;;;;5081005;28;20044;-37
2021/12/04 12:53:50;;;;;;;7.28;4.30;;;17.20;59.40;;;;;;5060338;28;20045;-41
2021/12/04 12:56:16;;;;;;;6.50;4.25;;;17.20;59.40;;;;;;5077591;28;33908;-37
2021/12/04 12:58:55;;;;;;;7.75;3.97;;;17.20;59.40;;;;;;5063066;28;20624;-38
2021/12/04 13:12:46;;;;;;;14.52;4.80;;;17.20;59.60;;;;;;5085255;28;20035;-37
2021/12/04 13:15:12;;;;;;;20.30;5.57;;;17.20;59.90;;;;;;5062103;28;20927;-34
2021/12/04 13:17:40;;;;;;;22.52;6.85;;;17.20;59.80;;;;;;5079346;28;20442;-36
2021/12/04 13:20:06;;;;;;;27.90;7.93;;;17.10;59.40;;;;;;5065809;28;25013;-34
2021/12/04 13:22:32;;;;;;;17.80;6.72;;;17.00;59.20;;;;;;5077996;28;20036;-33
2021/12/04 13:25:00;;;;;;;24.40;7.63;;;16.90;59.20;;;;;;5061215;28;30929;-35
2021/12/04 13:29:54;;;;;;;31.10;7.75;;;16.90;59.30;;;;;;5074655;28;20052;-34
2021/12/04 13:32:42;;;;;;;23.63;7.97;;;16.80;59.40;;;;;;5064064;28;20040;-31
2021/12/04 13:35:15;;;;;;;20.95;7.10;;;16.80;59.30;;;;;;5081041;28;20088;-32
2021/12/04 13:37:42;;;;;;;22.13;8.10;;;16.80;59.40;;;;;;5059655;28;24758;-33
2021/12/04 13:40:11;;;;;;;20.00;7.38;;;16.80;59.30;;;;;;5073987;28;20131;-33
2021/12/04 13:42:38;;;;;;;19.42;7.20;;;16.70;59.40;;;;;;5064963;28;20480;-33
2021/12/04 13:45:07;;;;;;;28.45;8.90;;;16.70;59.40;;;;;;5077164;28;20039;-38
2021/12/04 13:47:32;;;;;;;27.83;8.95;;;16.70;59.50;;;;;;5058832;28;20150;-37
2021/12/04 13:50:00;;;;;;;34.40;10.63;;;16.70;59.60;;;;;;5077031;28;20047;-34
2021/12/04 13:52:28;;;;;;;30.60;10.70;;;16.70;59.50;;;;;;5059802;28;33734;-35
2021/12/04 13:55:03;;;;;;;35.40;11.55;;;16.60;59.50;;;;;;5081607;28;20031;-32
2021/12/04 13:57:28;;;;;;;25.33;10.93;;;16.60;59.50;;;;;;5064286;28;20039;-31
2021/12/04 14:00:03;;;;;;;28.75;10.80;;;16.60;59.40;;;;;;5078111;28;20058;-32
2021/12/04 14:02:30;;;;;;;22.25;11.38;;;16.60;59.40;;;;;;5066219;28;20087;-34
2021/12/04 14:05:08;;;;;;;26.77;11.38;;;16.60;59.40;;;;;;5076585;28;20046;-32
2021/12/04 14:07:35;;;;;;;28.88;11.85;;;16.60;59.40;;;;;;5058919;28;34035;-34
2021/12/04 14:10:19;;;;;;;24.27;10.43;;;16.50;59.40;;;;;;5082415;28;20051;-32
2021/12/04 14:12:45;;;;;;;25.25;10.73;;;16.50;59.40;;;;;;5062954;28;20437;-42
2021/12/04 14:15:14;;;;;;;23.77;10.70;;;16.50;59.70;;;;;;5079535;28;20848;-42
2021/12/04 14:17:39;;;;;;;20.30;10.30;;;16.50;59.80;;;;;;5063877;28;24251;-43
2021/12/04 14:20:07;;;;;;;23.40;10.60;;;16.50;59.80;;;;;;5072955;28;41259;-43
2021/12/04 14:22:33;;;;;;;25.30;10.98;;;16.50;59.80;;;;;;5072766;28;20042;-46
2021/12/04 14:25:02;;;;;;;26.05;11.60;;;16.60;59.80;;;;;;5070780;28;20040;-43
2021/12/04 14:27:34;;;;;;;27.40;12.07;;;16.60;59.80;;;;;;5077258;28;20309;-60
2021/12/04 14:30:08;;;;;;;23.38;12.32;;;16.60;60.10;;;;;;5061001;28;24266;-51
2021/12/04 14:32:37;;;;;;;32.47;13.80;;;16.70;60.30;;;;;;5078040;28;20048;-42
2021/12/04 14:35:17;;;;;;;29.38;12.68;;;16.70;60.20;;;;;;5058696;28;33939;-44
2021/12/04 14:37:48;;;;;;;26.15;13.20;;;16.70;60.00;;;;;;5077966;28;20048;-43
2021/12/04 14:40:17;;;;;;;21.75;12.20;;;16.80;59.70;;;;;;5062555;28;20071;-43
2021/12/04 14:42:43;;;;;;;22.20;12.90;;;16.80;59.70;;;;;;5077712;28;20048;-41
2021/12/04 14:45:24;;;;;;;26.15;13.00;;;16.80;59.30;;;;;;5060780;28;20989;-35
2021/12/04 14:47:56;;;;;;;30.73;13.23;;;16.80;59.00;;;;;;5075988;28;40793;-35
2021/12/04 14:50:23;;;;;;;22.60;12.32;;;16.80;58.90;;;;;;5059756;28;22111;-36
2021/12/04 14:52:51;;;;;;;21.27;12.18;;;16.70;58.80;;;;;;5075745;28;20130;-34
2021/12/04 14:55:27;;;;;;;22.10;12.05;;;16.70;58.80;;;;;;5059987;28;24366;-34
2021/12/04 14:57:54;;;;;;;32.88;13.63;;;16.70;58.80;;;;;;5077307;28;20044;-34
2021/12/04 15:00:29;;;;;;;21.15;11.93;;;16.70;58.80;;;;;;5062838;28;20582;-33
2021/12/04 15:03:02;;;;;;;25.50;13.30;;;16.70;58.90;;;;;;5071980;28;35929;-35
2021/12/04 15:05:33;;;;;;;27.63;12.05;;;16.60;58.90;;;;;;5061380;28;26378;-41
2021/12/04 15:08:10;;;;;;;28.55;12.30;;;16.60;58.90;;;;;;5079709;28;20040;-40
2021/12/04 15:10:37;;;;;;;24.00;12.00;;;16.60;59.20;;;;;;5059893;28;20040;-42
2021/12/04 15:13:05;;;;;;;26.08;11.77;;;16.60;59.20;;;;;;5074111;28;20147;-43
2021/12/04 15:15:36;;;;;;;32.95;12.45;;;16.60;59.10;;;;;;5064958;28;20101;-36
2021/12/04 15:18:09;;;;;;;30.20;12.55;;;16.70;59.40;;;;;;5077939;28;20105;-31
2021/12/04 15:20:38;;;;;;;30.35;11.35;;;16.70;59.50;;;;;;5058289;28;26210;-34
2021/12/04 15:23:08;;;;;;;26.70;11.05;;;16.80;59.40;;;;;;5077103;28;20047;-34
2021/12/04 15:25:36;;;;;;;35.42;11.35;;;16.70;59.30;;;;;;5063557;28;23070;-38
2021/12/04 15:28:15;;;;;;;20.02;10.43;;;16.80;59.40;;;;;;5074181;28;20395;-31
2021/12/04 15:30:45;;;;;;;21.67;10.30;;;16.80;59.30;;;;;;5068141;28;26804;-38
2021/12/04 15:33:24;;;;;;;23.33;10.43;;;16.80;59.30;;;;;;5076691;28;20051;-31
2021/12/04 15:35:51;;;;;;;17.02;9.82;;;16.80;59.40;;;;;;5082334;28;20581;-34
2021/12/04 15:38:25;;;;;;;24.05;10.40;;;16.80;59.40;;;;;;5060890;28;20044;-31
2021/12/04 15:43:29;;;;;;;15.13;9.18;;;16.80;59.50;;;;;;5058849;28;20048;-32
2021/12/04 15:46:15;;;;;;;16.83;10.10;;;16.70;59.40;;;;;;5077229;28;31600;-31
2021/12/04 15:49:14;;;;;;;12.48;8.45;;;16.80;59.50;;;;;;5053920;28;20135;-32
2021/12/04 15:52:47;;;;;;;14.95;8.75;;;16.80;59.60;;;;;;5061862;28;20179;-37
2021/12/04 15:54:38;;;;;;;13.10;8.43;;;16.80;59.60;;;;;;5082326;28;20052;-31
2021/12/04 15:57:13;;;;;;;12.07;8.63;;;16.80;59.60;;;;;;5062932;28;25388;-33